Hlavní strana
METAR-TAF:

METAR-TAF

Letiště :

Bilbao, Španělsko

zeměpisná šířka: 43-18N, zeměpisná délka: 002-56W, výška: 42 m

Aktuální stav počasí

Zpráva byla vytvořena před 43 minutami, v 22:30 UTC
Východní vítr 4 kt, proměnlivý mezi východoseverovýchodním a jihovýchodním
Teplota 14°C
Vlhkost vzduchu 72%
Tlak 1011 hPa
Viditelnost 10 km a více
Žádná oblačnost pod 1500 m, nevyskytují se cumulonimby.

METAR: LEBB 212230Z AUTO 09004KT 070V130 CAVOK 14/09 Q1011

Čas: 01:13 (23:13 UTC)

Předpověď počasí

Zpráva byla vytvořena před 6 hodinami a 13 minutami, v 17:00 UTC
Předpověď platná od 21 v 18 UTC do 22 v 18 UTC
Východní vítr 5 kt
Viditelnost 10 km a více
Polojasno ve výšce 3000 ft
Pravděpodobnost 30% :
Dočasný
od 21 v 19 UTC do 22 v 06 UTC
Polojasno ve výšce 3000 ft, Vertikální cumulus.
déšť, dešťové přeháňky

TAF: LEBB 211700Z 2118/2218 10005KT 9999 SCT030 TX21/2215Z TN10/2206Z PROB30 TEMPO 2119/2206 RA SHRA SCT030TCU

Stav a předpovědi počasí z více než 4 000 letišť (zprávy METAR a TAF).

Červené a žluté tečky na mapě představují dostupné meteorologické stanice.

Když kurzor umístíte na tečku, zobrazí se název stanice.

Pak kliknutím zobrazíte stav a předpověď počasí.

Chcete-li změnit mapu, kliknutím na zelené tlačítko se znaménkem +mapu přiblížíte, kliknutím na zelené tlačítko se znaménkem – mapu oddálíte a kliknutím na zelené šipky přejdete na sousední mapy.


METAR-TAF: